createdAt,value
2022-12-26T00:00:28.004Z,10.27
2022-12-26T00:02:54.896Z,9.77
2022-12-26T00:05:21.673Z,10.88
2022-12-26T00:07:48.490Z,10.43
2022-12-26T00:10:15.273Z,10.15
2022-12-26T00:12:42.107Z,10.00
2022-12-26T00:15:09.090Z,9.60
2022-12-26T00:17:35.842Z,10.32
2022-12-26T00:20:02.751Z,9.70
2022-12-26T00:22:29.563Z,9.27
2022-12-26T00:24:56.348Z,9.65
2022-12-26T00:27:23.122Z,9.93
2022-12-26T00:29:49.952Z,9.35
2022-12-26T00:32:16.692Z,9.43
2022-12-26T00:34:43.448Z,8.95
2022-12-26T00:37:10.226Z,10.55
2022-12-26T00:39:36.960Z,9.75
2022-12-26T00:42:03.798Z,10.82
2022-12-26T00:44:30.633Z,10.65
2022-12-26T00:46:57.523Z,9.95
2022-12-26T00:49:24.376Z,9.88
2022-12-26T00:51:51.259Z,9.18
2022-12-26T00:54:19.161Z,9.88
2022-12-26T00:56:45.999Z,10.73
2022-12-26T00:59:12.857Z,11.23
2022-12-26T01:01:39.897Z,10.52
2022-12-26T01:04:06.847Z,10.40
2022-12-26T01:06:33.742Z,10.82
2022-12-26T01:09:00.599Z,9.65
2022-12-26T01:11:42.437Z,9.65
2022-12-26T01:14:16.959Z,9.63
2022-12-26T01:16:45.983Z,10.30
2022-12-26T01:19:13.596Z,9.32
2022-12-26T01:21:40.927Z,9.23
2022-12-26T01:24:07.821Z,9.00
2022-12-26T01:26:34.598Z,8.98
2022-12-26T01:29:01.391Z,8.75
2022-12-26T01:31:28.258Z,8.23
2022-12-26T01:33:55.112Z,8.75
2022-12-26T01:36:21.928Z,8.38
2022-12-26T01:38:48.734Z,9.40
2022-12-26T01:41:21.815Z,8.70
2022-12-26T01:43:48.674Z,8.73
2022-12-26T01:46:16.973Z,8.35
2022-12-26T01:48:44.260Z,7.88
2022-12-26T01:51:12.199Z,8.93
2022-12-26T01:53:45.072Z,8.13
2022-12-26T01:56:16.001Z,8.45
2022-12-26T01:58:50.356Z,8.05
2022-12-26T02:01:18.203Z,8.25
2022-12-26T02:04:05.876Z,9.20
2022-12-26T02:06:35.612Z,9.00
2022-12-26T02:09:02.834Z,10.10
2022-12-26T02:11:41.048Z,9.18
2022-12-26T02:14:09.285Z,9.18
2022-12-26T02:16:39.093Z,9.48
2022-12-26T02:19:32.555Z,9.73
2022-12-26T02:22:40.900Z,10.10
2022-12-26T02:25:26.586Z,9.13
2022-12-26T02:28:02.179Z,9.52
2022-12-26T02:30:54.448Z,10.02
2022-12-26T02:33:37.168Z,9.18
2022-12-26T02:37:05.454Z,8.68
2022-12-26T02:42:43.143Z,9.32
2022-12-26T02:45:54.641Z,8.82
2022-12-26T02:48:29.985Z,9.15
2022-12-26T02:51:26.997Z,9.35
2022-12-26T02:54:30.584Z,8.98
2022-12-26T02:57:22.531Z,9.65
2022-12-26T03:00:26.961Z,9.35
2022-12-26T03:03:24.103Z,9.80
2022-12-26T03:06:22.326Z,8.95
2022-12-26T03:09:15.821Z,9.20
2022-12-26T03:12:05.980Z,9.40
2022-12-26T03:14:52.325Z,8.98
2022-12-26T03:17:44.492Z,9.30
2022-12-26T03:20:14.691Z,9.25
2022-12-26T03:22:59.604Z,8.57
2022-12-26T03:25:54.029Z,9.65
2022-12-26T03:28:22.538Z,8.18
2022-12-26T03:30:49.771Z,8.98
2022-12-26T03:33:39.125Z,9.43
2022-12-26T03:36:07.215Z,9.23
2022-12-26T03:39:07.715Z,9.27
2022-12-26T03:42:04.650Z,9.32
2022-12-26T03:44:54.110Z,9.48
2022-12-26T03:47:47.892Z,9.55
2022-12-26T03:50:53.882Z,9.60
2022-12-26T03:54:03.773Z,10.13
2022-12-26T03:56:54.472Z,9.60
2022-12-26T03:59:46.864Z,9.95
2022-12-26T04:02:34.242Z,10.95
2022-12-26T04:05:34.846Z,10.55
2022-12-26T04:08:24.789Z,10.27
2022-12-26T04:11:15.273Z,9.90
2022-12-26T04:14:27.084Z,10.75
2022-12-26T04:17:26.799Z,9.95
2022-12-26T04:20:10.123Z,11.60
2022-12-26T04:23:10.235Z,12.85
2022-12-26T04:26:05.120Z,14.57
2022-12-26T04:28:50.718Z,13.85
2022-12-26T04:31:49.406Z,14.13
2022-12-26T04:34:43.215Z,12.50
2022-12-26T04:37:38.919Z,10.25
2022-12-26T04:40:30.114Z,9.13
2022-12-26T04:43:49.823Z,9.10
2022-12-26T04:46:03.620Z,9.23
2022-12-26T04:48:49.131Z,8.93
2022-12-26T04:51:15.932Z,8.80
2022-12-26T04:53:42.712Z,9.35
2022-12-26T04:56:10.967Z,8.73
2022-12-26T04:58:37.763Z,8.68
2022-12-26T05:01:22.931Z,8.98
2022-12-26T05:04:08.341Z,8.80
2022-12-26T05:06:53.815Z,9.38
2022-12-26T05:09:35.749Z,8.60
2022-12-26T05:12:04.939Z,8.93
2022-12-26T05:14:31.806Z,8.23
2022-12-26T05:17:21.286Z,8.88
2022-12-26T05:20:06.660Z,8.70
2022-12-26T05:22:55.773Z,7.97
2022-12-26T05:25:54.477Z,8.52
2022-12-26T05:28:44.423Z,8.75
2022-12-26T05:31:16.682Z,8.07
2022-12-26T05:34:03.765Z,8.77
2022-12-26T05:36:34.874Z,8.15
2022-12-26T05:39:02.145Z,8.25
2022-12-26T05:41:28.992Z,8.93
2022-12-26T05:43:55.779Z,9.00
2022-12-26T05:46:22.654Z,8.85
2022-12-26T05:48:49.587Z,8.88
2022-12-26T05:51:16.571Z,8.82
2022-12-26T05:53:43.389Z,9.27
2022-12-26T05:56:13.124Z,9.73
2022-12-26T05:58:40.682Z,9.38
2022-12-26T06:01:16.293Z,8.70
2022-12-26T06:03:47.558Z,10.15
2022-12-26T06:06:15.413Z,10.05
2022-12-26T06:08:42.348Z,9.65
2022-12-26T06:11:13.577Z,9.68
2022-12-26T06:13:41.276Z,9.10
2022-12-26T06:16:11.342Z,8.82
2022-12-26T06:18:38.580Z,9.20
2022-12-26T06:21:11.500Z,8.52
2022-12-26T06:23:38.755Z,8.82
2022-12-26T06:26:07.253Z,9.63
2022-12-26T06:28:34.799Z,9.00
2022-12-26T06:31:16.096Z,8.02
2022-12-26T06:33:43.070Z,9.13
2022-12-26T06:36:15.900Z,9.55
2022-12-26T06:38:43.653Z,9.75
2022-12-26T06:41:14.065Z,9.93
2022-12-26T06:43:41.497Z,9.73
2022-12-26T06:46:12.544Z,9.50
2022-12-26T06:48:39.970Z,9.77
2022-12-26T06:51:11.387Z,9.90
2022-12-26T06:53:38.217Z,10.98
2022-12-26T06:56:19.987Z,9.65
2022-12-26T06:58:47.407Z,10.68
2022-12-26T07:01:17.026Z,11.63
2022-12-26T07:03:51.177Z,10.77
2022-12-26T07:06:34.042Z,10.30
2022-12-26T07:09:07.274Z,11.15
2022-12-26T07:11:37.053Z,11.70
2022-12-26T07:14:04.579Z,9.68
2022-12-26T07:16:33.917Z,10.23
2022-12-26T07:19:00.815Z,9.93
2022-12-26T07:21:28.042Z,10.15
2022-12-26T07:23:55.821Z,10.88
2022-12-26T07:26:24.539Z,11.38
2022-12-26T07:28:59.045Z,11.98
2022-12-26T07:31:28.279Z,12.82
2022-12-26T07:33:56.639Z,12.07
2022-12-26T07:36:25.157Z,10.68
2022-12-26T07:38:52.465Z,11.05
2022-12-26T07:41:37.919Z,11.73
2022-12-26T07:44:06.254Z,11.15
2022-12-26T07:46:33.572Z,12.65
2022-12-26T07:49:03.211Z,12.55
2022-12-26T07:51:30.188Z,12.40
2022-12-26T07:53:57.070Z,13.25
2022-12-26T07:56:23.970Z,14.68
2022-12-26T07:58:51.799Z,13.88
2022-12-26T08:01:19.092Z,14.98
2022-12-26T08:03:48.703Z,15.55
2022-12-26T08:06:16.201Z,15.73
2022-12-26T08:08:50.234Z,15.52
2022-12-26T08:11:23.880Z,14.30
2022-12-26T08:13:51.662Z,15.50
2022-12-26T08:16:19.234Z,16.25
2022-12-26T08:18:46.117Z,16.13
2022-12-26T08:21:13.834Z,15.63
2022-12-26T08:23:40.878Z,15.95
2022-12-26T08:26:13.331Z,15.57
2022-12-26T08:28:40.136Z,16.00
2022-12-26T08:31:08.463Z,17.00
2022-12-26T08:33:36.045Z,17.90
2022-12-26T08:36:08.938Z,18.23
2022-12-26T08:38:37.050Z,20.60
2022-12-26T08:41:03.996Z,20.27
2022-12-26T08:44:24.894Z,20.17
2022-12-26T08:46:19.206Z,21.60
2022-12-26T08:48:47.036Z,21.83
2022-12-26T08:51:20.309Z,21.40
2022-12-26T08:53:49.473Z,21.70
2022-12-26T08:56:19.547Z,22.02
2022-12-26T08:58:47.001Z,22.02
2022-12-26T09:01:23.793Z,22.08
2022-12-26T09:03:55.341Z,21.80
2022-12-26T09:06:22.799Z,26.67
2022-12-26T09:08:50.016Z,25.27
2022-12-26T09:11:19.759Z,24.45
2022-12-26T09:13:47.418Z,24.75
2022-12-26T09:16:19.736Z,28.02
2022-12-26T09:18:47.423Z,27.48
2022-12-26T09:21:15.887Z,27.13
2022-12-26T09:23:43.055Z,28.80
2022-12-26T09:26:17.136Z,30.40
2022-12-26T09:28:46.007Z,30.63
2022-12-26T09:31:15.720Z,30.30
2022-12-26T09:33:42.905Z,29.85
2022-12-26T09:36:14.840Z,32.67
2022-12-26T09:38:43.092Z,30.27
2022-12-26T09:41:35.615Z,32.03
2022-12-26T09:44:21.746Z,31.58
2022-12-26T09:47:07.686Z,33.25
2022-12-26T09:49:43.575Z,30.52
2022-12-26T09:52:16.811Z,32.00
2022-12-26T09:54:52.946Z,30.92
2022-12-26T09:57:45.093Z,32.20
2022-12-26T10:00:21.117Z,29.95
2022-12-26T10:05:16.720Z,29.35
2022-12-26T10:07:50.327Z,28.75
2022-12-26T10:10:28.941Z,27.77
2022-12-26T10:13:13.820Z,27.58
2022-12-26T10:15:52.501Z,27.30
2022-12-26T10:18:25.188Z,26.42
2022-12-26T10:21:14.952Z,25.90
2022-12-26T10:24:01.505Z,23.65
2022-12-26T10:29:17.956Z,24.67
2022-12-26T10:32:16.442Z,25.70
2022-12-26T10:34:48.950Z,25.88
2022-12-26T10:37:30.848Z,25.42
2022-12-26T10:40:06.846Z,25.25
2022-12-26T10:45:19.450Z,25.45
2022-12-26T10:47:48.715Z,24.15
2022-12-26T10:50:27.863Z,24.83
2022-12-26T10:52:56.067Z,22.88
2022-12-26T10:55:31.562Z,24.52
2022-12-26T10:58:30.801Z,23.90
2022-12-26T11:01:17.644Z,22.95
2022-12-26T11:03:59.043Z,23.63
2022-12-26T11:06:36.854Z,24.33
2022-12-26T11:09:04.373Z,24.05
2022-12-26T11:11:48.557Z,22.60
2022-12-26T11:14:38.665Z,23.00
2022-12-26T11:17:08.977Z,23.92
2022-12-26T11:19:38.792Z,23.30
2022-12-26T11:22:28.195Z,25.55
2022-12-26T11:25:11.742Z,25.85
2022-12-26T11:27:44.162Z,25.60
2022-12-26T11:30:47.257Z,25.13
2022-12-26T11:33:26.899Z,26.67
2022-12-26T11:36:16.826Z,29.63
2022-12-26T11:38:51.501Z,26.48
2022-12-26T11:41:33.411Z,26.90
2022-12-26T11:44:12.585Z,26.48
2022-12-26T11:46:42.523Z,25.73
2022-12-26T11:49:59.132Z,25.33
2022-12-26T11:52:43.657Z,24.00
2022-12-26T11:55:22.646Z,23.23
2022-12-26T11:58:08.575Z,23.13
2022-12-26T12:00:39.884Z,23.52
2022-12-26T12:03:22.292Z,22.42
2022-12-26T12:06:01.029Z,22.15
2022-12-26T12:08:49.070Z,22.80
2022-12-26T12:11:36.104Z,20.40
2022-12-26T12:14:33.850Z,20.73
2022-12-26T12:17:12.914Z,19.30
2022-12-26T12:20:05.682Z,19.58
2022-12-26T12:22:40.515Z,21.17
2022-12-26T12:25:30.420Z,21.08
2022-12-26T12:28:24.953Z,20.65
2022-12-26T12:31:19.249Z,20.33
2022-12-26T12:33:48.850Z,20.35
2022-12-26T12:36:51.297Z,19.23
2022-12-26T12:39:35.761Z,17.55
2022-12-26T12:42:35.852Z,19.25
2022-12-26T12:45:30.158Z,19.48
2022-12-26T12:48:18.258Z,18.92
2022-12-26T12:50:56.819Z,17.75
2022-12-26T12:53:52.773Z,20.00
2022-12-26T12:56:49.655Z,18.73
2022-12-26T13:02:08.540Z,17.55
2022-12-26T13:04:44.944Z,18.48
2022-12-26T13:07:20.567Z,19.73
2022-12-26T13:09:56.683Z,18.77
2022-12-26T13:12:44.862Z,18.08
2022-12-26T13:15:21.343Z,17.70
2022-12-26T13:18:10.648Z,18.95
2022-12-26T13:20:53.957Z,17.08
2022-12-26T13:23:55.082Z,18.20
2022-12-26T13:26:27.136Z,18.08
2022-12-26T13:29:06.554Z,18.00
2022-12-26T13:31:37.892Z,17.05
2022-12-26T13:34:08.389Z,17.67
2022-12-26T13:36:39.894Z,17.90
2022-12-26T13:39:12.887Z,18.67
2022-12-26T13:42:07.919Z,18.73
2022-12-26T13:44:34.852Z,17.30
2022-12-26T13:47:02.292Z,18.75
2022-12-26T13:49:36.126Z,18.08
2022-12-26T13:52:12.136Z,19.30
2022-12-26T13:57:42.827Z,18.85
2022-12-26T14:00:42.356Z,17.80
2022-12-26T14:03:20.029Z,18.70
2022-12-26T14:05:53.264Z,17.92
2022-12-26T14:08:19.986Z,17.65
2022-12-26T14:10:55.552Z,20.23
2022-12-26T14:13:37.129Z,17.55
2022-12-26T14:16:22.651Z,16.77
2022-12-26T14:19:34.274Z,18.03
2022-12-26T14:22:07.304Z,19.13
2022-12-26T14:24:52.589Z,18.25
2022-12-26T14:27:45.624Z,17.33
2022-12-26T14:30:23.575Z,18.00
2022-12-26T14:32:58.173Z,18.55
2022-12-26T14:35:48.162Z,17.90
2022-12-26T14:38:26.903Z,19.52
2022-12-26T14:41:34.344Z,17.65
2022-12-26T14:46:42.805Z,20.50
2022-12-26T14:49:35.484Z,19.95
2022-12-26T14:52:24.204Z,19.13
2022-12-26T14:54:52.356Z,20.33
2022-12-26T14:57:38.075Z,21.55
2022-12-26T15:00:29.316Z,21.60
2022-12-26T15:02:59.046Z,22.33
2022-12-26T15:05:36.709Z,20.15
2022-12-26T15:08:12.224Z,19.65
2022-12-26T15:11:03.940Z,18.20
2022-12-26T15:13:58.511Z,17.80
2022-12-26T15:16:40.216Z,18.92
2022-12-26T15:19:22.077Z,19.75
2022-12-26T15:22:28.144Z,18.77
2022-12-26T15:25:32.243Z,18.02
2022-12-26T15:28:13.553Z,18.50
2022-12-26T15:31:06.602Z,17.30
2022-12-26T15:33:44.533Z,17.45
2022-12-26T15:36:19.998Z,20.23
2022-12-26T15:39:16.060Z,17.75
2022-12-26T15:41:49.234Z,19.83
2022-12-26T15:44:43.345Z,18.60
2022-12-26T15:47:21.930Z,18.55
2022-12-26T15:50:22.152Z,19.38
2022-12-26T15:53:08.102Z,18.85
2022-12-26T15:56:00.775Z,17.88
2022-12-26T15:58:46.308Z,17.67
2022-12-26T16:01:13.500Z,16.67
2022-12-26T16:04:16.949Z,18.80
2022-12-26T16:07:20.348Z,16.65
2022-12-26T16:09:51.838Z,17.92
2022-12-26T16:12:30.616Z,18.60
2022-12-26T16:15:15.476Z,15.20
2022-12-26T16:17:43.270Z,17.58
2022-12-26T16:20:43.645Z,17.00
2022-12-26T16:23:31.875Z,15.85
2022-12-26T16:26:00.657Z,17.15
2022-12-26T16:28:39.211Z,17.23
2022-12-26T16:31:07.140Z,17.73
2022-12-26T16:33:42.399Z,15.13
2022-12-26T16:36:12.996Z,15.18
2022-12-26T16:38:39.993Z,16.13
2022-12-26T16:41:19.219Z,16.35
2022-12-26T16:43:46.314Z,16.60
2022-12-26T16:46:13.601Z,14.68
2022-12-26T16:48:42.247Z,15.05
2022-12-26T16:51:42.487Z,15.23
2022-12-26T16:54:15.329Z,16.00
2022-12-26T16:56:42.956Z,15.88
2022-12-26T16:59:23.237Z,15.85
2022-12-26T17:01:56.171Z,15.50
2022-12-26T17:04:28.960Z,16.08
2022-12-26T17:06:58.849Z,15.95
2022-12-26T17:09:30.757Z,16.27
2022-12-26T17:12:04.862Z,16.85
2022-12-26T17:14:38.666Z,17.10
2022-12-26T17:17:08.900Z,16.50
2022-12-26T17:19:37.093Z,16.60
2022-12-26T17:22:17.860Z,14.98
2022-12-26T17:24:46.608Z,16.55
2022-12-26T17:27:24.056Z,16.55
2022-12-26T17:29:59.459Z,17.27
2022-12-26T17:32:33.087Z,15.32
2022-12-26T17:35:02.439Z,16.42
2022-12-26T17:37:29.283Z,16.83
2022-12-26T17:40:08.304Z,17.50
2022-12-26T17:42:46.538Z,16.85
2022-12-26T17:45:19.366Z,16.48
2022-12-26T17:47:46.202Z,16.20
2022-12-26T17:50:13.457Z,17.48
2022-12-26T17:52:40.481Z,15.85
2022-12-26T17:55:24.916Z,16.95
2022-12-26T17:57:52.536Z,17.08
2022-12-26T18:00:22.948Z,17.55
2022-12-26T18:02:50.253Z,19.17
2022-12-26T18:05:18.629Z,16.80
2022-12-26T18:07:46.761Z,19.10
2022-12-26T18:10:23.851Z,17.35
2022-12-26T18:12:52.244Z,19.15
2022-12-26T18:15:20.073Z,17.38
2022-12-26T18:17:48.643Z,19.48
2022-12-26T18:20:23.663Z,20.48
2022-12-26T18:22:51.549Z,20.07
2022-12-26T18:25:21.660Z,19.02
2022-12-26T18:27:49.091Z,19.98
2022-12-26T18:30:25.424Z,19.92
2022-12-26T18:32:53.517Z,16.02
2022-12-26T18:35:20.957Z,19.80
2022-12-26T18:37:51.796Z,18.27
2022-12-26T18:40:26.397Z,17.05
2022-12-26T18:42:53.183Z,18.77
2022-12-26T18:45:20.272Z,19.92
2022-12-26T18:47:47.106Z,18.95
2022-12-26T18:50:15.971Z,18.25
2022-12-26T18:52:42.964Z,18.92
2022-12-26T18:55:10.185Z,19.58
2022-12-26T18:57:37.018Z,18.13
2022-12-26T19:00:04.889Z,17.80
2022-12-26T19:02:32.022Z,17.83
2022-12-26T19:04:58.904Z,16.73
2022-12-26T19:07:25.669Z,17.55
2022-12-26T19:09:58.013Z,15.95
2022-12-26T19:12:26.599Z,16.48
2022-12-26T19:14:53.437Z,16.25
2022-12-26T19:17:20.237Z,16.70
2022-12-26T19:19:47.856Z,16.92
2022-12-26T19:22:14.783Z,17.20
2022-12-26T19:24:41.572Z,18.10
2022-12-26T19:27:08.401Z,16.90
2022-12-26T19:29:35.410Z,16.70
2022-12-26T19:32:02.510Z,18.95
2022-12-26T19:34:29.746Z,19.45
2022-12-26T19:36:56.581Z,18.73
2022-12-26T19:39:23.816Z,17.25
2022-12-26T19:41:50.695Z,17.23
2022-12-26T19:44:17.711Z,18.77
2022-12-26T19:46:44.646Z,19.80
2022-12-26T19:49:11.469Z,19.38
2022-12-26T19:51:38.434Z,17.52
2022-12-26T19:54:06.862Z,18.40
2022-12-26T19:56:34.183Z,17.25
2022-12-26T19:59:01.192Z,19.88
2022-12-26T20:01:30.551Z,17.13
2022-12-26T20:04:00.292Z,18.35
2022-12-26T20:06:29.785Z,18.17
2022-12-26T20:08:59.989Z,18.02
2022-12-26T20:11:32.590Z,17.98
2022-12-26T20:14:00.702Z,17.52
2022-12-26T20:19:15.571Z,18.83
2022-12-26T20:21:42.337Z,15.00
2022-12-26T20:24:11.461Z,18.27
2022-12-26T20:26:39.122Z,15.23
2022-12-26T20:29:06.094Z,16.48
2022-12-26T20:31:33.236Z,16.42
2022-12-26T20:34:01.179Z,16.58
2022-12-26T20:36:30.660Z,15.93
2022-12-26T20:39:00.490Z,15.55
2022-12-26T20:41:28.614Z,15.48
2022-12-26T20:43:56.338Z,15.55
2022-12-26T20:46:26.363Z,16.90
2022-12-26T20:48:53.400Z,17.30
2022-12-26T20:51:23.480Z,15.05
2022-12-26T20:53:51.731Z,15.13
2022-12-26T20:56:19.148Z,16.33
2022-12-26T20:58:46.186Z,13.20
2022-12-26T21:01:15.970Z,15.52
2022-12-26T21:03:43.542Z,14.98
2022-12-26T21:06:12.222Z,15.15
2022-12-26T21:08:40.786Z,15.27
2022-12-26T21:11:10.332Z,14.30
2022-12-26T21:13:38.143Z,14.73
2022-12-26T21:16:18.933Z,14.75
2022-12-26T21:18:46.715Z,10.68
2022-12-26T21:21:17.272Z,13.73
2022-12-26T21:23:44.356Z,14.68
2022-12-26T21:26:11.613Z,14.40
2022-12-26T21:28:39.348Z,13.27
2022-12-26T21:31:08.838Z,14.15
2022-12-26T21:33:42.249Z,14.88
2022-12-26T21:36:13.141Z,14.27
2022-12-26T21:38:40.408Z,15.15
2022-12-26T21:41:12.008Z,15.45
2022-12-26T21:43:38.836Z,15.60
2022-12-26T21:46:08.880Z,13.85
2022-12-26T21:48:36.420Z,13.40
2022-12-26T21:51:07.399Z,12.25
2022-12-26T21:53:34.613Z,13.63
2022-12-26T21:56:06.481Z,15.10
2022-12-26T21:58:56.226Z,14.55
2022-12-26T22:01:25.206Z,14.30
2022-12-26T22:04:13.047Z,14.00
2022-12-26T22:06:40.594Z,13.40
2022-12-26T22:09:08.056Z,13.77
2022-12-26T22:11:53.320Z,14.75
2022-12-26T22:14:20.408Z,13.90
2022-12-26T22:16:47.197Z,12.45
2022-12-26T22:19:13.965Z,13.70
2022-12-26T22:21:40.702Z,14.80
2022-12-26T22:24:09.704Z,13.60
2022-12-26T22:26:36.553Z,15.45
2022-12-26T22:29:03.551Z,14.32
2022-12-26T22:31:33.307Z,14.05
2022-12-26T22:34:03.246Z,13.35
2022-12-26T22:36:31.005Z,13.60
2022-12-26T22:38:59.372Z,14.60
2022-12-26T22:41:27.075Z,15.10
2022-12-26T22:43:55.105Z,14.82
2022-12-26T22:46:21.910Z,14.65
2022-12-26T22:48:48.975Z,12.45
2022-12-26T22:51:21.495Z,13.73
2022-12-26T22:53:48.692Z,12.82
2022-12-26T22:56:15.910Z,13.98
2022-12-26T22:58:43.143Z,12.48
2022-12-26T23:01:18.954Z,13.23
2022-12-26T23:03:45.983Z,12.65
2022-12-26T23:06:29.341Z,9.93
2022-12-26T23:08:58.583Z,11.82
2022-12-26T23:11:34.098Z,12.05
2022-12-26T23:16:38.435Z,11.18
2022-12-26T23:19:35.422Z,11.25
2022-12-26T23:24:32.027Z,11.75
2022-12-26T23:27:26.343Z,12.52
2022-12-26T23:30:12.273Z,11.50
2022-12-26T23:32:40.961Z,10.48
2022-12-26T23:35:09.862Z,11.65
2022-12-26T23:37:38.097Z,11.85
2022-12-26T23:40:05.863Z,11.88
2022-12-26T23:42:32.847Z,11.82
2022-12-26T23:44:59.657Z,11.18
2022-12-26T23:47:27.378Z,11.63
2022-12-26T23:49:54.119Z,12.70
2022-12-26T23:52:23.196Z,12.23
2022-12-26T23:54:53.650Z,11.45
2022-12-26T23:57:20.421Z,10.88
2022-12-26T23:59:47.783Z,10.95
